sensor_id;sensor_type;location;lat;lon;timestamp;P1;durP1;ratioP1;P2;durP2;ratioP2
68284;SDS011;55114;52.052;5.238;2022-07-06T00:00:07;4.53;;;1.58;;
68284;SDS011;55114;52.052;5.238;2022-07-06T00:02:36;4.05;;;1.52;;
68284;SDS011;55114;52.052;5.238;2022-07-06T00:05:03;5.13;;;1.40;;
68284;SDS011;55114;52.052;5.238;2022-07-06T00:07:30;6.13;;;1.70;;
68284;SDS011;55114;52.052;5.238;2022-07-06T00:09:57;4.90;;;1.52;;
68284;SDS011;55114;52.052;5.238;2022-07-06T00:12:24;3.75;;;1.58;;
68284;SDS011;55114;52.052;5.238;2022-07-06T00:14:52;4.50;;;1.50;;
68284;SDS011;55114;52.052;5.238;2022-07-06T00:17:19;4.60;;;1.67;;
68284;SDS011;55114;52.052;5.238;2022-07-06T00:19:46;5.07;;;1.67;;
68284;SDS011;55114;52.052;5.238;2022-07-06T00:22:13;6.10;;;1.50;;
68284;SDS011;55114;52.052;5.238;2022-07-06T00:24:40;3.88;;;1.60;;
68284;SDS011;55114;52.052;5.238;2022-07-06T00:27:08;5.13;;;1.50;;
68284;SDS011;55114;52.052;5.238;2022-07-06T00:29:35;4.40;;;1.70;;
68284;SDS011;55114;52.052;5.238;2022-07-06T00:32:02;4.10;;;1.43;;
68284;SDS011;55114;52.052;5.238;2022-07-06T00:34:29;3.85;;;1.40;;
68284;SDS011;55114;52.052;5.238;2022-07-06T00:36:56;5.13;;;1.58;;
68284;SDS011;55114;52.052;5.238;2022-07-06T00:39:23;4.25;;;1.60;;
68284;SDS011;55114;52.052;5.238;2022-07-06T00:41:55;5.63;;;1.70;;
68284;SDS011;55114;52.052;5.238;2022-07-06T00:44:23;3.63;;;1.73;;
68284;SDS011;55114;52.052;5.238;2022-07-06T00:46:50;4.43;;;1.60;;
68284;SDS011;55114;52.052;5.238;2022-07-06T00:49:18;5.68;;;1.80;;
68284;SDS011;55114;52.052;5.238;2022-07-06T00:52:03;4.70;;;1.60;;
68284;SDS011;55114;52.052;5.238;2022-07-06T00:54:31;4.88;;;1.70;;
68284;SDS011;55114;52.052;5.238;2022-07-06T00:56:59;4.67;;;1.50;;
68284;SDS011;55114;52.052;5.238;2022-07-06T00:59:27;4.13;;;1.65;;
68284;SDS011;55114;52.052;5.238;2022-07-06T01:01:54;3.55;;;1.60;;
68284;SDS011;55114;52.052;5.238;2022-07-06T01:04:21;4.50;;;1.92;;
68284;SDS011;55114;52.052;5.238;2022-07-06T01:06:48;4.95;;;1.90;;
68284;SDS011;55114;52.052;5.238;2022-07-06T01:09:16;5.47;;;1.73;;
68284;SDS011;55114;52.052;5.238;2022-07-06T01:11:43;6.28;;;1.70;;
68284;SDS011;55114;52.052;5.238;2022-07-06T01:14:11;4.30;;;1.80;;
68284;SDS011;55114;52.052;5.238;2022-07-06T01:16:39;4.25;;;1.73;;
68284;SDS011;55114;52.052;5.238;2022-07-06T01:19:06;6.22;;;1.58;;
68284;SDS011;55114;52.052;5.238;2022-07-06T01:21:33;4.33;;;1.60;;
68284;SDS011;55114;52.052;5.238;2022-07-06T01:24:00;4.18;;;1.42;;
68284;SDS011;55114;52.052;5.238;2022-07-06T01:26:27;5.53;;;1.80;;
68284;SDS011;55114;52.052;5.238;2022-07-06T01:28:54;4.53;;;1.80;;
68284;SDS011;55114;52.052;5.238;2022-07-06T01:31:22;6.35;;;1.90;;
68284;SDS011;55114;52.052;5.238;2022-07-06T01:33:50;4.17;;;1.67;;
68284;SDS011;55114;52.052;5.238;2022-07-06T01:36:17;4.25;;;1.58;;
68284;SDS011;55114;52.052;5.238;2022-07-06T01:38:48;5.22;;;1.80;;
68284;SDS011;55114;52.052;5.238;2022-07-06T01:41:16;4.72;;;1.70;;
68284;SDS011;55114;52.052;5.238;2022-07-06T01:43:44;5.95;;;1.90;;
68284;SDS011;55114;52.052;5.238;2022-07-06T01:46:11;5.00;;;1.40;;
68284;SDS011;55114;52.052;5.238;2022-07-06T01:48:39;4.72;;;1.80;;
68284;SDS011;55114;52.052;5.238;2022-07-06T01:51:06;6.72;;;1.73;;
68284;SDS011;55114;52.052;5.238;2022-07-06T01:53:33;4.43;;;1.80;;
68284;SDS011;55114;52.052;5.238;2022-07-06T01:56:00;3.55;;;1.70;;
68284;SDS011;55114;52.052;5.238;2022-07-06T01:58:28;4.93;;;2.00;;
68284;SDS011;55114;52.052;5.238;2022-07-06T02:00:55;3.83;;;1.67;;
68284;SDS011;55114;52.052;5.238;2022-07-06T02:03:22;4.18;;;1.63;;
68284;SDS011;55114;52.052;5.238;2022-07-06T02:05:49;4.07;;;1.70;;
68284;SDS011;55114;52.052;5.238;2022-07-06T02:08:16;3.72;;;1.80;;
68284;SDS011;55114;52.052;5.238;2022-07-06T02:10:43;4.70;;;1.83;;
68284;SDS011;55114;52.052;5.238;2022-07-06T02:13:10;5.75;;;1.90;;
68284;SDS011;55114;52.052;5.238;2022-07-06T02:15:37;7.43;;;2.25;;
68284;SDS011;55114;52.052;5.238;2022-07-06T02:18:04;4.57;;;1.67;;
68284;SDS011;55114;52.052;5.238;2022-07-06T02:20:32;5.45;;;1.95;;
68284;SDS011;55114;52.052;5.238;2022-07-06T02:22:59;5.63;;;1.90;;
68284;SDS011;55114;52.052;5.238;2022-07-06T02:25:26;4.22;;;1.77;;
68284;SDS011;55114;52.052;5.238;2022-07-06T02:27:53;4.68;;;1.75;;
68284;SDS011;55114;52.052;5.238;2022-07-06T02:30:20;4.55;;;1.58;;
68284;SDS011;55114;52.052;5.238;2022-07-06T02:32:47;3.33;;;1.50;;
68284;SDS011;55114;52.052;5.238;2022-07-06T02:35:15;5.40;;;2.13;;
68284;SDS011;55114;52.052;5.238;2022-07-06T02:37:42;4.65;;;1.60;;
68284;SDS011;55114;52.052;5.238;2022-07-06T02:40:09;6.05;;;1.63;;
68284;SDS011;55114;52.052;5.238;2022-07-06T02:42:36;6.10;;;1.60;;
68284;SDS011;55114;52.052;5.238;2022-07-06T02:45:03;5.35;;;1.80;;
68284;SDS011;55114;52.052;5.238;2022-07-06T02:47:31;6.57;;;1.73;;
68284;SDS011;55114;52.052;5.238;2022-07-06T02:49:58;4.78;;;1.90;;
68284;SDS011;55114;52.052;5.238;2022-07-06T02:52:25;4.90;;;1.75;;
68284;SDS011;55114;52.052;5.238;2022-07-06T02:54:52;5.95;;;2.08;;
68284;SDS011;55114;52.052;5.238;2022-07-06T02:57:19;5.45;;;1.80;;
68284;SDS011;55114;52.052;5.238;2022-07-06T02:59:46;3.50;;;1.70;;
68284;SDS011;55114;52.052;5.238;2022-07-06T03:02:16;4.35;;;1.60;;
68284;SDS011;55114;52.052;5.238;2022-07-06T03:04:43;4.30;;;1.70;;
68284;SDS011;55114;52.052;5.238;2022-07-06T03:07:10;5.47;;;1.65;;
68284;SDS011;55114;52.052;5.238;2022-07-06T03:09:37;5.20;;;1.70;;
68284;SDS011;55114;52.052;5.238;2022-07-06T03:12:04;4.00;;;1.60;;
68284;SDS011;55114;52.052;5.238;2022-07-06T03:14:31;4.22;;;1.50;;
68284;SDS011;55114;52.052;5.238;2022-07-06T03:16:59;6.20;;;1.75;;
68284;SDS011;55114;52.052;5.238;2022-07-06T03:19:26;5.35;;;1.77;;
68284;SDS011;55114;52.052;5.238;2022-07-06T03:21:53;3.95;;;1.60;;
68284;SDS011;55114;52.052;5.238;2022-07-06T03:24:20;6.10;;;2.17;;
68284;SDS011;55114;52.052;5.238;2022-07-06T03:26:47;8.20;;;1.70;;
68284;SDS011;55114;52.052;5.238;2022-07-06T03:29:14;5.72;;;1.50;;
68284;SDS011;55114;52.052;5.238;2022-07-06T03:31:41;5.38;;;1.65;;
68284;SDS011;55114;52.052;5.238;2022-07-06T03:34:08;4.78;;;1.52;;
68284;SDS011;55114;52.052;5.238;2022-07-06T03:36:35;4.40;;;1.30;;
68284;SDS011;55114;52.052;5.238;2022-07-06T03:39:04;4.60;;;1.70;;
68284;SDS011;55114;52.052;5.238;2022-07-06T03:41:32;3.97;;;1.80;;
68284;SDS011;55114;52.052;5.238;2022-07-06T03:43:59;5.05;;;1.63;;
68284;SDS011;55114;52.052;5.238;2022-07-06T03:46:27;3.88;;;1.60;;
68284;SDS011;55114;52.052;5.238;2022-07-06T03:48:54;3.20;;;1.43;;
68284;SDS011;55114;52.052;5.238;2022-07-06T03:51:21;4.75;;;1.63;;
68284;SDS011;55114;52.052;5.238;2022-07-06T03:53:49;5.40;;;1.80;;
68284;SDS011;55114;52.052;5.238;2022-07-06T03:56:16;3.70;;;1.50;;
68284;SDS011;55114;52.052;5.238;2022-07-06T03:58:56;5.35;;;1.70;;
68284;SDS011;55114;52.052;5.238;2022-07-06T04:01:23;4.97;;;1.50;;
68284;SDS011;55114;52.052;5.238;2022-07-06T04:03:51;3.97;;;1.60;;
68284;SDS011;55114;52.052;5.238;2022-07-06T04:06:18;5.55;;;1.60;;
68284;SDS011;55114;52.052;5.238;2022-07-06T04:08:45;3.85;;;1.70;;
68284;SDS011;55114;52.052;5.238;2022-07-06T04:11:12;3.67;;;1.60;;
68284;SDS011;55114;52.052;5.238;2022-07-06T04:13:39;5.77;;;1.97;;
68284;SDS011;55114;52.052;5.238;2022-07-06T04:16:07;4.60;;;1.83;;
68284;SDS011;55114;52.052;5.238;2022-07-06T04:18:34;5.15;;;1.80;;
68284;SDS011;55114;52.052;5.238;2022-07-06T04:21:01;5.65;;;1.73;;
68284;SDS011;55114;52.052;5.238;2022-07-06T04:23:28;5.82;;;2.03;;
68284;SDS011;55114;52.052;5.238;2022-07-06T04:25:56;4.53;;;1.60;;
68284;SDS011;55114;52.052;5.238;2022-07-06T04:28:23;4.28;;;1.48;;
68284;SDS011;55114;52.052;5.238;2022-07-06T04:30:51;4.20;;;1.80;;
68284;SDS011;55114;52.052;5.238;2022-07-06T04:33:18;4.60;;;1.50;;
68284;SDS011;55114;52.052;5.238;2022-07-06T04:35:45;3.72;;;1.75;;
68284;SDS011;55114;52.052;5.238;2022-07-06T04:38:12;3.73;;;1.70;;
68284;SDS011;55114;52.052;5.238;2022-07-06T04:40:39;6.60;;;1.83;;
68284;SDS011;55114;52.052;5.238;2022-07-06T04:43:06;6.82;;;1.90;;
68284;SDS011;55114;52.052;5.238;2022-07-06T04:45:34;4.55;;;1.63;;
68284;SDS011;55114;52.052;5.238;2022-07-06T04:48:01;8.30;;;1.73;;
68284;SDS011;55114;52.052;5.238;2022-07-06T04:50:28;4.67;;;1.73;;
68284;SDS011;55114;52.052;5.238;2022-07-06T04:53:02;4.30;;;1.80;;
68284;SDS011;55114;52.052;5.238;2022-07-06T04:55:29;4.22;;;1.70;;
68284;SDS011;55114;52.052;5.238;2022-07-06T04:57:56;4.60;;;1.60;;
68284;SDS011;55114;52.052;5.238;2022-07-06T05:00:24;4.60;;;2.05;;
68284;SDS011;55114;52.052;5.238;2022-07-06T05:02:51;4.17;;;1.47;;
68284;SDS011;55114;52.052;5.238;2022-07-06T05:05:18;4.80;;;1.45;;
68284;SDS011;55114;52.052;5.238;2022-07-06T05:07:45;5.60;;;1.60;;
68284;SDS011;55114;52.052;5.238;2022-07-06T05:10:12;7.63;;;1.90;;
68284;SDS011;55114;52.052;5.238;2022-07-06T05:12:40;3.92;;;1.90;;
68284;SDS011;55114;52.052;5.238;2022-07-06T05:15:07;3.83;;;1.40;;
68284;SDS011;55114;52.052;5.238;2022-07-06T05:17:34;7.85;;;1.80;;
68284;SDS011;55114;52.052;5.238;2022-07-06T05:20:01;3.83;;;1.50;;
68284;SDS011;55114;52.052;5.238;2022-07-06T05:22:28;3.00;;;1.50;;
68284;SDS011;55114;52.052;5.238;2022-07-06T05:24:56;5.13;;;1.83;;
68284;SDS011;55114;52.052;5.238;2022-07-06T05:27:23;4.07;;;1.70;;
68284;SDS011;55114;52.052;5.238;2022-07-06T05:29:50;5.30;;;1.30;;
68284;SDS011;55114;52.052;5.238;2022-07-06T05:32:17;4.65;;;1.50;;
68284;SDS011;55114;52.052;5.238;2022-07-06T05:34:44;5.18;;;1.70;;
68284;SDS011;55114;52.052;5.238;2022-07-06T05:37:11;4.30;;;1.48;;
68284;SDS011;55114;52.052;5.238;2022-07-06T05:39:38;5.77;;;1.40;;
68284;SDS011;55114;52.052;5.238;2022-07-06T05:42:09;3.75;;;1.40;;
68284;SDS011;55114;52.052;5.238;2022-07-06T05:44:36;4.28;;;1.40;;
68284;SDS011;55114;52.052;5.238;2022-07-06T05:47:03;3.78;;;1.27;;
68284;SDS011;55114;52.052;5.238;2022-07-06T05:49:50;3.47;;;1.30;;
68284;SDS011;55114;52.052;5.238;2022-07-06T05:52:35;6.47;;;1.50;;
68284;SDS011;55114;52.052;5.238;2022-07-06T05:55:03;3.72;;;1.20;;
68284;SDS011;55114;52.052;5.238;2022-07-06T05:57:30;4.68;;;1.45;;
68284;SDS011;55114;52.052;5.238;2022-07-06T05:59:57;4.75;;;1.40;;
68284;SDS011;55114;52.052;5.238;2022-07-06T06:02:24;4.03;;;1.30;;
68284;SDS011;55114;52.052;5.238;2022-07-06T06:04:52;2.93;;;1.50;;
68284;SDS011;55114;52.052;5.238;2022-07-06T06:07:19;4.30;;;1.40;;
68284;SDS011;55114;52.052;5.238;2022-07-06T06:09:46;6.68;;;1.60;;
68284;SDS011;55114;52.052;5.238;2022-07-06T06:12:13;3.55;;;1.50;;
68284;SDS011;55114;52.052;5.238;2022-07-06T06:14:41;6.15;;;1.45;;
68284;SDS011;55114;52.052;5.238;2022-07-06T06:17:08;7.73;;;1.60;;
68284;SDS011;55114;52.052;5.238;2022-07-06T06:19:36;3.22;;;1.33;;
68284;SDS011;55114;52.052;5.238;2022-07-06T06:22:03;5.80;;;1.30;;
68284;SDS011;55114;52.052;5.238;2022-07-06T06:24:30;3.08;;;1.17;;
68284;SDS011;55114;52.052;5.238;2022-07-06T06:26:57;2.58;;;1.05;;
68284;SDS011;55114;52.052;5.238;2022-07-06T06:29:25;4.17;;;1.30;;
68284;SDS011;55114;52.052;5.238;2022-07-06T06:31:52;4.30;;;0.98;;
68284;SDS011;55114;52.052;5.238;2022-07-06T06:34:19;3.72;;;1.20;;
68284;SDS011;55114;52.052;5.238;2022-07-06T06:36:47;3.60;;;1.20;;
68284;SDS011;55114;52.052;5.238;2022-07-06T06:39:14;3.72;;;1.23;;
68284;SDS011;55114;52.052;5.238;2022-07-06T06:41:41;3.60;;;0.87;;
68284;SDS011;55114;52.052;5.238;2022-07-06T06:44:08;4.25;;;1.15;;
68284;SDS011;55114;52.052;5.238;2022-07-06T06:46:35;4.60;;;1.40;;
68284;SDS011;55114;52.052;5.238;2022-07-06T06:49:04;3.88;;;1.05;;
68284;SDS011;55114;52.052;5.238;2022-07-06T06:51:32;5.13;;;1.30;;
68284;SDS011;55114;52.052;5.238;2022-07-06T06:53:59;3.47;;;1.03;;
68284;SDS011;55114;52.052;5.238;2022-07-06T06:56:26;5.60;;;1.15;;
68284;SDS011;55114;52.052;5.238;2022-07-06T06:58:53;5.35;;;1.35;;
68284;SDS011;55114;52.052;5.238;2022-07-06T07:01:40;4.25;;;1.15;;
68284;SDS011;55114;52.052;5.238;2022-07-06T07:04:07;4.97;;;1.10;;
68284;SDS011;55114;52.052;5.238;2022-07-06T07:06:34;3.67;;;1.00;;
68284;SDS011;55114;52.052;5.238;2022-07-06T07:09:02;5.07;;;1.02;;
68284;SDS011;55114;52.052;5.238;2022-07-06T07:11:29;2.80;;;1.17;;
68284;SDS011;55114;52.052;5.238;2022-07-06T07:13:56;3.03;;;0.82;;
68284;SDS011;55114;52.052;5.238;2022-07-06T07:16:23;3.10;;;1.30;;
68284;SDS011;55114;52.052;5.238;2022-07-06T07:18:50;2.60;;;1.10;;
68284;SDS011;55114;52.052;5.238;2022-07-06T07:21:18;4.63;;;1.20;;
68284;SDS011;55114;52.052;5.238;2022-07-06T07:23:45;3.63;;;1.20;;
68284;SDS011;55114;52.052;5.238;2022-07-06T07:26:12;3.88;;;1.13;;
68284;SDS011;55114;52.052;5.238;2022-07-06T07:28:39;3.92;;;1.15;;
68284;SDS011;55114;52.052;5.238;2022-07-06T07:31:06;3.87;;;1.07;;
68284;SDS011;55114;52.052;5.238;2022-07-06T07:33:34;4.35;;;1.23;;
68284;SDS011;55114;52.052;5.238;2022-07-06T07:36:01;3.15;;;1.38;;
68284;SDS011;55114;52.052;5.238;2022-07-06T07:38:28;3.97;;;0.82;;
68284;SDS011;55114;52.052;5.238;2022-07-06T07:40:55;3.90;;;1.17;;
68284;SDS011;55114;52.052;5.238;2022-07-06T07:43:22;4.30;;;1.17;;
68284;SDS011;55114;52.052;5.238;2022-07-06T07:45:49;3.47;;;1.30;;
68284;SDS011;55114;52.052;5.238;2022-07-06T07:48:16;3.33;;;1.40;;
68284;SDS011;55114;52.052;5.238;2022-07-06T07:50:43;4.32;;;1.20;;
68284;SDS011;55114;52.052;5.238;2022-07-06T07:53:10;2.60;;;1.42;;
68284;SDS011;55114;52.052;5.238;2022-07-06T07:55:38;3.03;;;1.27;;
68284;SDS011;55114;52.052;5.238;2022-07-06T07:58:07;3.42;;;1.13;;
68284;SDS011;55114;52.052;5.238;2022-07-06T08:00:34;5.00;;;1.42;;
68284;SDS011;55114;52.052;5.238;2022-07-06T08:03:01;3.42;;;1.20;;
68284;SDS011;55114;52.052;5.238;2022-07-06T08:05:29;3.20;;;1.40;;
68284;SDS011;55114;52.052;5.238;2022-07-06T08:07:56;2.67;;;1.07;;
68284;SDS011;55114;52.052;5.238;2022-07-06T08:10:23;3.72;;;1.00;;
68284;SDS011;55114;52.052;5.238;2022-07-06T08:12:50;5.35;;;1.40;;
68284;SDS011;55114;52.052;5.238;2022-07-06T08:15:17;3.05;;;1.30;;
68284;SDS011;55114;52.052;5.238;2022-07-06T08:17:44;2.22;;;1.10;;
68284;SDS011;55114;52.052;5.238;2022-07-06T08:20:12;2.20;;;1.03;;
68284;SDS011;55114;52.052;5.238;2022-07-06T08:22:39;2.95;;;1.10;;
68284;SDS011;55114;52.052;5.238;2022-07-06T08:25:06;3.20;;;1.20;;
68284;SDS011;55114;52.052;5.238;2022-07-06T08:27:34;3.25;;;1.02;;
68284;SDS011;55114;52.052;5.238;2022-07-06T08:30:02;3.50;;;1.23;;
68284;SDS011;55114;52.052;5.238;2022-07-06T08:32:29;6.03;;;1.20;;
68284;SDS011;55114;52.052;5.238;2022-07-06T08:35:16;2.78;;;1.10;;
68284;SDS011;55114;52.052;5.238;2022-07-06T08:37:43;3.83;;;1.30;;
68284;SDS011;55114;52.052;5.238;2022-07-06T08:40:11;3.47;;;1.27;;
68284;SDS011;55114;52.052;5.238;2022-07-06T08:42:38;2.92;;;1.17;;
68284;SDS011;55114;52.052;5.238;2022-07-06T08:45:06;4.33;;;1.30;;
68284;SDS011;55114;52.052;5.238;2022-07-06T08:47:35;2.55;;;1.10;;
68284;SDS011;55114;52.052;5.238;2022-07-06T08:50:04;3.10;;;1.20;;
68284;SDS011;55114;52.052;5.238;2022-07-06T08:52:31;3.03;;;1.20;;
68284;SDS011;55114;52.052;5.238;2022-07-06T08:54:59;2.92;;;1.10;;
68284;SDS011;55114;52.052;5.238;2022-07-06T08:57:27;3.40;;;1.20;;
68284;SDS011;55114;52.052;5.238;2022-07-06T08:59:54;2.95;;;1.13;;
68284;SDS011;55114;52.052;5.238;2022-07-06T09:02:23;2.55;;;1.30;;
68284;SDS011;55114;52.052;5.238;2022-07-06T09:04:53;2.45;;;1.20;;
68284;SDS011;55114;52.052;5.238;2022-07-06T09:07:22;2.70;;;1.40;;
68284;SDS011;55114;52.052;5.238;2022-07-06T09:10:09;3.23;;;1.27;;
68284;SDS011;55114;52.052;5.238;2022-07-06T09:12:36;3.38;;;1.10;;
68284;SDS011;55114;52.052;5.238;2022-07-06T09:15:03;4.15;;;1.42;;
68284;SDS011;55114;52.052;5.238;2022-07-06T09:17:31;2.70;;;1.17;;
68284;SDS011;55114;52.052;5.238;2022-07-06T09:19:58;3.80;;;1.42;;
68284;SDS011;55114;52.052;5.238;2022-07-06T09:22:26;4.17;;;1.20;;
68284;SDS011;55114;52.052;5.238;2022-07-06T09:25:00;4.70;;;1.40;;
68284;SDS011;55114;52.052;5.238;2022-07-06T09:27:27;4.28;;;1.30;;
68284;SDS011;55114;52.052;5.238;2022-07-06T09:29:54;3.20;;;1.27;;
68284;SDS011;55114;52.052;5.238;2022-07-06T09:32:26;1.90;;;1.05;;
68284;SDS011;55114;52.052;5.238;2022-07-06T09:34:53;2.13;;;1.00;;
68284;SDS011;55114;52.052;5.238;2022-07-06T09:37:21;2.20;;;1.02;;
68284;SDS011;55114;52.052;5.238;2022-07-06T09:39:52;1.75;;;1.10;;
68284;SDS011;55114;52.052;5.238;2022-07-06T09:42:23;2.25;;;1.10;;
68284;SDS011;55114;52.052;5.238;2022-07-06T09:44:51;2.38;;;0.90;;
68284;SDS011;55114;52.052;5.238;2022-07-06T09:47:18;2.20;;;1.00;;
68284;SDS011;55114;52.052;5.238;2022-07-06T09:49:46;2.30;;;1.00;;
68284;SDS011;55114;52.052;5.238;2022-07-06T09:52:16;3.70;;;1.40;;
68284;SDS011;55114;52.052;5.238;2022-07-06T09:54:43;2.40;;;1.02;;
68284;SDS011;55114;52.052;5.238;2022-07-06T09:57:15;2.97;;;1.30;;
68284;SDS011;55114;52.052;5.238;2022-07-06T09:59:42;2.80;;;1.20;;
68284;SDS011;55114;52.052;5.238;2022-07-06T10:02:16;4.47;;;1.15;;
68284;SDS011;55114;52.052;5.238;2022-07-06T10:04:44;3.28;;;1.20;;
68284;SDS011;55114;52.052;5.238;2022-07-06T10:07:11;2.78;;;1.20;;
68284;SDS011;55114;52.052;5.238;2022-07-06T10:09:38;2.50;;;1.20;;
68284;SDS011;55114;52.052;5.238;2022-07-06T10:12:08;3.97;;;1.10;;
68284;SDS011;55114;52.052;5.238;2022-07-06T10:14:37;3.55;;;1.00;;
68284;SDS011;55114;52.052;5.238;2022-07-06T10:17:04;3.22;;;1.30;;
68284;SDS011;55114;52.052;5.238;2022-07-06T10:19:32;6.25;;;2.60;;
68284;SDS011;55114;52.052;5.238;2022-07-06T10:22:00;2.92;;;1.30;;
68284;SDS011;55114;52.052;5.238;2022-07-06T10:24:27;3.67;;;1.60;;
68284;SDS011;55114;52.052;5.238;2022-07-06T10:26:55;2.67;;;1.25;;
68284;SDS011;55114;52.052;5.238;2022-07-06T10:29:23;2.05;;;0.98;;
68284;SDS011;55114;52.052;5.238;2022-07-06T10:31:50;2.80;;;1.10;;
68284;SDS011;55114;52.052;5.238;2022-07-06T10:34:20;3.25;;;1.17;;
68284;SDS011;55114;52.052;5.238;2022-07-06T10:36:50;4.13;;;1.10;;
68284;SDS011;55114;52.052;5.238;2022-07-06T10:39:31;3.05;;;1.20;;
68284;SDS011;55114;52.052;5.238;2022-07-06T10:45:02;4.43;;;1.48;;
68284;SDS011;55114;52.052;5.238;2022-07-06T10:47:29;3.58;;;1.15;;
68284;SDS011;55114;52.052;5.238;2022-07-06T10:50:00;2.23;;;0.97;;
68284;SDS011;55114;52.052;5.238;2022-07-06T10:55:32;2.28;;;1.10;;
68284;SDS011;55114;52.052;5.238;2022-07-06T10:57:59;3.03;;;1.05;;
68284;SDS011;55114;52.052;5.238;2022-07-06T11:00:42;3.45;;;1.30;;
68284;SDS011;55114;52.052;5.238;2022-07-06T11:03:29;3.17;;;1.07;;
68284;SDS011;55114;52.052;5.238;2022-07-06T11:06:09;2.42;;;1.33;;
68284;SDS011;55114;52.052;5.238;2022-07-06T11:13:42;2.30;;;1.30;;
68284;SDS011;55114;52.052;5.238;2022-07-06T11:16:09;3.50;;;1.17;;
68284;SDS011;55114;52.052;5.238;2022-07-06T11:18:40;2.53;;;1.30;;
68284;SDS011;55114;52.052;5.238;2022-07-06T11:21:23;2.35;;;1.20;;
68284;SDS011;55114;52.052;5.238;2022-07-06T11:23:50;3.38;;;1.48;;
68284;SDS011;55114;52.052;5.238;2022-07-06T11:26:17;3.50;;;1.25;;
68284;SDS011;55114;52.052;5.238;2022-07-06T11:28:45;3.73;;;1.47;;
68284;SDS011;55114;52.052;5.238;2022-07-06T11:31:13;2.92;;;1.20;;
68284;SDS011;55114;52.052;5.238;2022-07-06T11:33:41;3.17;;;1.40;;
68284;SDS011;55114;52.052;5.238;2022-07-06T11:36:14;1.83;;;1.20;;
68284;SDS011;55114;52.052;5.238;2022-07-06T11:38:42;2.28;;;1.30;;
68284;SDS011;55114;52.052;5.238;2022-07-06T11:41:10;2.13;;;1.10;;
68284;SDS011;55114;52.052;5.238;2022-07-06T11:43:43;2.83;;;1.20;;
68284;SDS011;55114;52.052;5.238;2022-07-06T11:46:18;3.17;;;1.30;;
68284;SDS011;55114;52.052;5.238;2022-07-06T11:48:46;3.90;;;1.30;;
68284;SDS011;55114;52.052;5.238;2022-07-06T11:51:13;2.85;;;1.50;;
68284;SDS011;55114;52.052;5.238;2022-07-06T11:53:45;2.93;;;1.23;;
68284;SDS011;55114;52.052;5.238;2022-07-06T11:56:18;5.55;;;1.40;;
68284;SDS011;55114;52.052;5.238;2022-07-06T11:58:50;2.55;;;1.30;;
68284;SDS011;55114;52.052;5.238;2022-07-06T12:01:18;3.58;;;1.40;;
68284;SDS011;55114;52.052;5.238;2022-07-06T12:03:45;4.07;;;1.60;;
68284;SDS011;55114;52.052;5.238;2022-07-06T12:06:21;4.50;;;1.53;;
68284;SDS011;55114;52.052;5.238;2022-07-06T12:08:50;3.40;;;1.27;;
68284;SDS011;55114;52.052;5.238;2022-07-06T12:11:22;3.30;;;1.30;;
68284;SDS011;55114;52.052;5.238;2022-07-06T12:13:49;2.95;;;1.40;;
68284;SDS011;55114;52.052;5.238;2022-07-06T12:16:17;3.35;;;1.35;;
68284;SDS011;55114;52.052;5.238;2022-07-06T12:18:45;2.20;;;1.30;;
68284;SDS011;55114;52.052;5.238;2022-07-06T12:21:14;2.55;;;1.40;;
68284;SDS011;55114;52.052;5.238;2022-07-06T12:23:47;2.80;;;1.40;;
68284;SDS011;55114;52.052;5.238;2022-07-06T12:26:15;2.72;;;1.20;;
68284;SDS011;55114;52.052;5.238;2022-07-06T12:28:43;2.95;;;1.30;;
68284;SDS011;55114;52.052;5.238;2022-07-06T12:31:10;4.40;;;1.23;;
68284;SDS011;55114;52.052;5.238;2022-07-06T12:33:38;4.15;;;1.50;;
68284;SDS011;55114;52.052;5.238;2022-07-06T12:36:08;3.40;;;1.45;;
68284;SDS011;55114;52.052;5.238;2022-07-06T12:38:35;2.90;;;1.38;;
68284;SDS011;55114;52.052;5.238;2022-07-06T12:41:02;5.30;;;1.55;;
68284;SDS011;55114;52.052;5.238;2022-07-06T12:43:39;4.83;;;1.40;;
68284;SDS011;55114;52.052;5.238;2022-07-06T12:48:53;4.30;;;1.60;;
68284;SDS011;55114;52.052;5.238;2022-07-06T12:51:20;3.70;;;1.63;;
68284;SDS011;55114;52.052;5.238;2022-07-06T12:53:48;2.65;;;1.60;;
68284;SDS011;55114;52.052;5.238;2022-07-06T12:56:15;4.30;;;1.60;;
68284;SDS011;55114;52.052;5.238;2022-07-06T12:58:56;2.75;;;1.30;;
68284;SDS011;55114;52.052;5.238;2022-07-06T13:01:23;2.88;;;1.55;;
68284;SDS011;55114;52.052;5.238;2022-07-06T13:03:54;2.92;;;1.65;;
68284;SDS011;55114;52.052;5.238;2022-07-06T13:06:32;3.22;;;1.70;;
68284;SDS011;55114;52.052;5.238;2022-07-06T13:08:59;3.67;;;1.60;;
68284;SDS011;55114;52.052;5.238;2022-07-06T13:11:26;2.67;;;1.58;;
68284;SDS011;55114;52.052;5.238;2022-07-06T13:13:53;5.45;;;1.70;;
68284;SDS011;55114;52.052;5.238;2022-07-06T13:16:20;3.83;;;1.40;;
68284;SDS011;55114;52.052;5.238;2022-07-06T13:18:50;3.22;;;1.52;;
68284;SDS011;55114;52.052;5.238;2022-07-06T13:21:17;3.20;;;1.50;;
68284;SDS011;55114;52.052;5.238;2022-07-06T13:23:44;2.85;;;1.40;;
68284;SDS011;55114;52.052;5.238;2022-07-06T13:26:11;2.22;;;1.42;;
68284;SDS011;55114;52.052;5.238;2022-07-06T13:28:38;2.97;;;1.67;;
68284;SDS011;55114;52.052;5.238;2022-07-06T13:31:05;8.63;;;2.45;;
68284;SDS011;55114;52.052;5.238;2022-07-06T13:33:37;5.73;;;1.97;;
68284;SDS011;55114;52.052;5.238;2022-07-06T13:36:04;5.32;;;1.83;;
68284;SDS011;55114;52.052;5.238;2022-07-06T13:38:32;4.50;;;1.95;;
68284;SDS011;55114;52.052;5.238;2022-07-06T13:40:59;3.58;;;1.60;;
68284;SDS011;55114;52.052;5.238;2022-07-06T13:43:26;3.97;;;2.13;;
68284;SDS011;55114;52.052;5.238;2022-07-06T13:46:02;3.93;;;1.50;;
68284;SDS011;55114;52.052;5.238;2022-07-06T13:48:30;5.45;;;1.70;;
68284;SDS011;55114;52.052;5.238;2022-07-06T13:50:58;3.70;;;1.67;;
68284;SDS011;55114;52.052;5.238;2022-07-06T13:53:25;4.47;;;2.00;;
68284;SDS011;55114;52.052;5.238;2022-07-06T13:55:53;3.58;;;1.75;;
68284;SDS011;55114;52.052;5.238;2022-07-06T13:58:21;4.43;;;1.77;;
68284;SDS011;55114;52.052;5.238;2022-07-06T14:00:48;4.97;;;1.60;;
68284;SDS011;55114;52.052;5.238;2022-07-06T14:03:15;4.80;;;1.85;;
68284;SDS011;55114;52.052;5.238;2022-07-06T14:05:42;7.28;;;2.20;;
68284;SDS011;55114;52.052;5.238;2022-07-06T14:08:10;4.30;;;1.70;;
68284;SDS011;55114;52.052;5.238;2022-07-06T14:10:37;4.17;;;1.80;;
68284;SDS011;55114;52.052;5.238;2022-07-06T14:13:04;4.13;;;1.85;;
68284;SDS011;55114;52.052;5.238;2022-07-06T14:15:31;4.30;;;1.85;;
68284;SDS011;55114;52.052;5.238;2022-07-06T14:17:59;4.95;;;1.70;;
68284;SDS011;55114;52.052;5.238;2022-07-06T14:20:26;3.80;;;1.80;;
68284;SDS011;55114;52.052;5.238;2022-07-06T14:22:54;4.27;;;1.90;;
68284;SDS011;55114;52.052;5.238;2022-07-06T14:25:21;4.65;;;2.00;;
68284;SDS011;55114;52.052;5.238;2022-07-06T14:27:48;6.55;;;1.90;;
68284;SDS011;55114;52.052;5.238;2022-07-06T14:30:15;4.25;;;2.17;;
68284;SDS011;55114;52.052;5.238;2022-07-06T14:32:42;5.03;;;2.03;;
68284;SDS011;55114;52.052;5.238;2022-07-06T14:35:10;3.93;;;1.80;;
68284;SDS011;55114;52.052;5.238;2022-07-06T14:37:37;3.70;;;1.70;;
68284;SDS011;55114;52.052;5.238;2022-07-06T14:40:04;3.33;;;1.83;;
68284;SDS011;55114;52.052;5.238;2022-07-06T14:42:32;3.90;;;1.73;;
68284;SDS011;55114;52.052;5.238;2022-07-06T14:44:59;3.67;;;1.80;;
68284;SDS011;55114;52.052;5.238;2022-07-06T14:47:26;3.93;;;1.60;;
68284;SDS011;55114;52.052;5.238;2022-07-06T14:49:53;4.60;;;1.80;;
68284;SDS011;55114;52.052;5.238;2022-07-06T14:52:20;3.65;;;1.85;;
68284;SDS011;55114;52.052;5.238;2022-07-06T14:54:50;4.95;;;1.73;;
68284;SDS011;55114;52.052;5.238;2022-07-06T14:57:17;4.45;;;1.80;;
68284;SDS011;55114;52.052;5.238;2022-07-06T14:59:45;4.23;;;1.70;;
68284;SDS011;55114;52.052;5.238;2022-07-06T15:02:12;4.05;;;1.80;;
68284;SDS011;55114;52.052;5.238;2022-07-06T15:04:39;3.83;;;1.90;;
68284;SDS011;55114;52.052;5.238;2022-07-06T15:07:06;4.68;;;2.10;;